Latest Weather Observations for Rhyll

IDV60801

Issued at 11:02 pm EST Sunday 24 May 2015 (issued every 30 minutes, with the page automatically refreshed every 10 minutes)

About weather observations | Map of weather stations | Latest weather observations for VIC | Other Formats
Station Details ID: 086373 Name: RHYLL Lat: -38.46 Lon: 145.31 Height: 13.4 m
Data from the previous 72 hours. | See also: Recent months at Rhyll
Date/Time
EST
Temp
°C
App
Temp
°C
Dew
Point
Rel
Hum
%
Delta-T
°C
Wind Press
QNH
hPa
Press
MSL
hPa
Rain
since 9 am
mm
Dir
 
Spd
km/h
Gust
km/h
Spd
kts
Gust
kts
24/11:00pm 9.3 7.6 7.4 88 0.9 NNE 6 9 3 5 1030.7 1030.7 0.0
24/10:30pm 8.8 7.0 7.3 90 0.7 NE 6 7 3 4 1030.8 1030.8 0.0
24/10:00pm 9.0 8.0 7.3 89 0.8 NE 2 6 1 3 1031.0 1031.0 0.0
24/09:30pm 9.3 8.2 7.1 86 1.0 N 2 6 1 3 1031.1 1031.1 0.0
24/09:00pm 9.9 9.0 7.8 87 1.0 N 2 6 1 3 1031.1 1031.1 0.0
24/08:30pm 9.1 8.5 7.5 90 0.8 CALM 0 6 0 3 1030.9 1030.9 0.0
24/08:00pm 9.7 8.7 7.5 86 1.0 N 2 6 1 3 1030.8 1030.8 0.0
24/07:30pm 9.7 8.4 7.6 87 1.0 NNE 4 9 2 5 1030.7 1030.7 0.0
24/07:00pm 10.0 8.2 7.8 86 1.0 NE 7 11 4 6 1030.6 1030.6 0.0
24/06:30pm 10.3 8.4 7.7 84 1.2 NE 7 9 4 5 1030.3 1030.3 0.0
24/06:00pm 10.3 8.2 8.4 88 0.9 NE 9 11 5 6 1030.1 1030.1 0.0
24/05:30pm 10.6 8.2 8.5 87 1.0 NE 11 13 6 7 1030.1 1030.1 0.0
24/05:00pm 10.8 9.1 8.2 84 1.3 NE 7 9 4 5 1030.0 1030.0 0.0
24/04:30pm 11.1 9.5 8.0 81 1.5 NE 6 7 3 4 1030.2 1030.2 0.0
24/04:00pm 12.0 10.4 8.7 80 1.6 NE 7 9 4 5 1030.0 1030.0 0.0
24/03:30pm 12.4 10.3 8.3 76 2.0 ENE 9 11 5 6 1030.0 1030.0 0.0
24/03:00pm 12.6 10.6 8.5 76 2.0 ENE 9 13 5 7 1030.0 1030.0 0.0
24/02:30pm 12.3 10.1 8.0 75 2.1 ENE 9 11 5 6 1030.0 1030.0 0.0
24/02:00pm 12.7 10.6 8.4 75 2.1 ENE 9 13 5 7 1029.9 1029.9 0.0
24/01:30pm 12.7 11.4 7.6 71 2.5 ENE 4 6 2 3 1030.2 1030.2 0.0
24/01:00pm 12.1 10.7 7.2 72 2.3 N 4 7 2 4 1030.4 1030.4 0.0
24/12:30pm 11.0 8.9 6.7 75 2.0 N 7 11 4 6 1030.9 1030.9 0.0
24/12:00pm 10.2 7.7 6.5 78 1.7 N 9 13 5 7 1031.2 1031.2 0.0
24/11:30am 9.4 7.2 6.3 81 1.4 N 7 11 4 6 1031.7 1031.7 0.0
24/11:00am 9.2 7.0 6.1 81 1.4 N 7 15 4 8 1032.2 1032.2 0.0
24/10:30am 9.1 6.5 6.2 82 1.3 NNE 9 15 5 8 1032.2 1032.2 0.0
24/10:00am 7.6 4.9 5.6 87 0.9 N 9 17 5 9 1032.4 1032.4 0.0
24/09:30am 7.6 5.3 5.6 87 0.9 NNE 7 11 4 6 1032.4 1032.4 0.0
24/09:00am 7.2 4.8 5.2 87 0.9 N 7 13 4 7 1032.3 1032.3 0.0
24/08:30am 7.1 4.9 5.1 87 0.9 NNW 6 9 3 5 1032.3 1032.3 0.0
24/08:00am 7.2 4.4 5.3 88 0.8 NNE 9 19 5 10 1031.8 1031.8 0.0
24/07:30am 7.3 3.8 5.4 88 0.8 NNE 13 19 7 10 1031.4 1031.4 0.0
24/07:00am 7.8 4.7 5.6 86 1.0 NNE 11 24 6 13 1031.2 1031.2 0.0
24/06:30am 8.2 6.0 6.2 87 0.9 NNE 7 15 4 8 1031.0 1031.0 0.0
24/06:00am 8.2 4.8 6.0 86 1.0 NE 13 20 7 11 1030.7 1030.7 0.0
24/05:30am 8.5 5.6 6.3 86 1.0 NE 11 17 6 9 1030.8 1030.8 0.0
24/05:00am 8.6 6.4 6.4 86 1.0 NNE 7 15 4 8 1030.8 1030.8 0.0
24/04:30am 8.9 6.8 6.5 85 1.1 NE 7 13 4 7 1030.8 1030.8 0.0
24/04:00am 8.9 8.1 6.3 84 1.2 CALM 0 2 0 1 1030.7 1030.7 0.0
24/03:30am 8.8 7.6 6.3 84 1.1 SSE 2 4 1 2 1030.5 1030.5 0.0
24/03:00am 8.8 7.9 6.1 83 1.2 CALM 0 0 0 0 1030.7 1030.7 0.0
24/02:30am 8.8 8.0 6.4 85 1.1 CALM 0 4 0 2 1030.9 1030.9 0.0
24/02:00am 8.5 7.7 6.5 87 0.9 CALM 0 0 0 0 1031.1 1031.1 0.0
24/01:30am 8.1 6.5 6.2 88 0.9 SSW 4 6 2 3 1031.0 1031.0 0.0
24/01:00am 8.4 6.8 6.2 86 1.0 WNW 4 6 2 3 1031.3 1031.3 0.0
24/12:30am 8.8 7.2 6.3 84 1.1 W 4 6 2 3 1031.4 1031.4 0.0
24/12:00am 9.4 8.6 6.5 82 1.3 CALM 0 0 0 0 1031.5 1031.5 0.0
 
Date/Time
EST
Temp
°C
App
Temp
°C
Dew
Point
Rel
Hum
%
Delta-T
°C
Wind Press
QNH
hPa
Press
MSL
hPa
Rain
since 9 am
mm
Dir
 
Spd
km/h
Gust
km/h
Spd
kts
Gust
kts
23/11:30pm 9.5 8.3 6.4 81 1.4 WNW 2 4 1 2 1031.7 1031.7 0.0
23/11:00pm 9.6 8.4 6.3 80 1.5 SW 2 7 1 4 1031.8 1031.8 0.0
23/10:30pm 9.8 9.0 6.5 80 1.5 CALM 0 4 0 2 1032.0 1032.0 0.0
23/10:00pm 10.0 8.8 6.5 79 1.6 WSW 2 4 1 2 1032.1 1032.1 0.0
23/09:30pm 10.0 8.8 6.5 79 1.6 W 2 6 1 3 1032.2 1032.2 0.0
23/09:00pm 10.1 8.9 6.3 77 1.7 W 2 4 1 2 1032.3 1032.3 0.0
23/08:30pm 10.3 9.1 6.6 78 1.7 WNW 2 6 1 3 1032.2 1032.2 0.0
23/08:00pm 10.5 9.0 6.8 78 1.7 SW 4 7 2 4 1032.0 1032.0 0.0
23/07:30pm 10.8 10.2 7.3 79 1.7 CALM 0 2 0 1 1032.0 1032.0 0.0
23/07:00pm 10.8 10.1 7.1 78 1.7 CALM 0 0 0 0 1032.0 1032.0 0.0
23/06:30pm 10.9 9.9 7.2 78 1.8 SW 2 7 1 4 1031.8 1031.8 0.0
23/06:00pm 10.8 10.2 7.5 80 1.6 CALM 0 0 0 0 1031.6 1031.6 0.0
23/05:30pm 10.9 10.3 7.6 80 1.6 CALM 0 0 0 0 1031.5 1031.5 0.0
23/05:00pm 10.9 10.3 7.4 79 1.7 CALM 0 0 0 0 1031.6 1031.6 0.0
23/04:30pm 11.0 9.6 7.3 78 1.8 SW 4 7 2 4 1031.8 1031.8 0.0
23/04:00pm 10.9 8.9 7.2 78 1.7 SW 7 13 4 7 1031.9 1031.9 0.0
23/03:30pm 11.1 9.4 7.6 79 1.7 WSW 6 13 3 7 1031.9 1031.9 0.0
23/03:00pm 11.2 8.5 7.3 77 1.9 SW 11 19 6 10 1031.9 1031.9 0.0
23/02:30pm 11.7 9.8 7.4 75 2.1 SW 7 13 4 7 1031.5 1031.5 0.0
23/02:00pm 12.5 10.9 7.8 73 2.3 S 6 11 3 6 1031.8 1031.8 0.0
23/01:30pm 12.2 10.2 6.9 70 2.5 SSW 7 17 4 9 1031.9 1031.9 0.0
23/01:00pm 12.5 10.4 6.5 67 2.8 S 7 13 4 7 1032.1 1032.1 0.0
23/12:30pm 12.5 10.5 7.2 70 2.6 SSW 7 13 4 7 1032.4 1032.4 0.0
23/12:00pm 12.1 10.1 7.2 72 2.3 WSW 7 13 4 7 1032.7 1032.7 0.0
23/11:30am 12.1 10.6 7.0 71 2.4 WNW 4 11 2 6 1033.0 1033.0 0.0
23/11:00am 12.1 10.6 7.0 71 2.4 SSW 4 9 2 5 1033.3 1033.3 0.0
23/10:30am 11.3 9.3 6.4 72 2.3 W 6 11 3 6 1033.4 1033.4 0.0
23/10:00am 11.3 9.2 6.8 74 2.1 SW 7 11 4 6 1033.4 1033.4 0.0
23/09:30am 11.2 9.2 6.1 71 2.4 WSW 6 11 3 6 1033.2 1033.2 0.0
23/09:00am 10.9 9.7 6.5 74 2.0 SW 2 6 1 3 1033.2 1033.2 0.0
23/08:30am 10.7 8.5 6.3 74 2.1 WSW 7 15 4 8 1033.1 1033.1 0.0
23/08:00am 10.5 8.5 6.3 75 1.9 SW 6 11 3 6 1033.0 1033.0 0.0
23/07:30am 10.5 9.1 7.2 80 1.6 WSW 4 9 2 5 1032.6 1032.6 0.0
23/07:00am 10.4 8.8 6.5 77 1.8 W 4 9 2 5 1032.3 1032.3 0.0
23/06:30am 10.4 8.5 6.5 77 1.8 W 6 7 3 4 1032.2 1032.2 0.0
23/06:00am 10.6 8.7 6.6 76 1.9 WSW 6 13 3 7 1032.0 1032.0 0.0
23/05:30am 10.8 8.3 6.6 75 2.0 SW 9 17 5 9 1031.7 1031.7 0.0
23/05:00am 11.0 9.1 6.9 76 1.9 WSW 6 9 3 5 1031.6 1031.6 0.0
23/04:30am 10.9 9.0 6.6 75 2.0 SW 6 11 3 6 1031.4 1031.4 0.0
23/04:00am 11.0 9.1 6.6 74 2.1 WSW 6 11 3 6 1031.3 1031.3 0.0
23/03:30am 11.0 8.9 6.7 75 2.0 SSW 7 15 4 8 1031.4 1031.4 0.0
23/03:00am 11.1 9.2 6.8 75 2.0 SSW 6 13 3 7 1031.4 1031.4 0.0
23/02:30am 11.2 8.7 6.5 73 2.2 SW 9 19 5 10 1031.7 1031.7 0.0
23/02:00am 11.2 8.7 6.7 74 2.1 S 9 15 5 8 1031.8 1031.8 0.0
23/01:30am 11.3 9.3 7.0 75 2.0 SSW 7 13 4 7 1031.6 1031.6 0.0
23/01:00am 11.2 8.7 6.7 74 2.1 S 9 20 5 11 1031.8 1031.8 0.0
23/12:30am 11.2 9.3 6.5 73 2.2 SSW 6 9 3 5 1031.8 1031.8 0.0
23/12:00am 11.3 8.7 6.2 71 2.4 SSW 9 15 5 8 1032.0 1032.0 0.0
 
Date/Time
EST
Temp
°C
App
Temp
°C
Dew
Point
Rel
Hum
%
Delta-T
°C
Wind Press
QNH
hPa
Press
MSL
hPa
Rain
since 9 am
mm
Dir
 
Spd
km/h
Gust
km/h
Spd
kts
Gust
kts
22/11:30pm 11.6 9.1 6.7 72 2.3 SSW 9 17 5 9 1032.0 1032.0 0.0
22/11:00pm 11.7 9.2 6.6 71 2.4 SW 9 17 5 9 1031.8 1031.8 0.0
22/10:30pm 11.8 8.9 6.7 71 2.4 S 11 20 6 11 1031.9 1031.9 0.0
22/10:00pm 11.9 9.2 7.4 74 2.2 SSW 11 17 6 9 1031.9 1031.9 0.0
22/09:30pm 11.9 8.4 7.4 74 2.2 SSW 15 24 8 13 1031.7 1031.7 0.0
22/09:00pm 11.8 9.4 7.1 73 2.2 SSW 9 15 5 8 1031.9 1031.9 0.0
22/08:30pm 11.8 8.2 6.7 71 2.4 S 15 24 8 13 1031.8 1031.8 0.0
22/08:00pm 11.8 9.7 6.7 71 2.4 SW 7 13 4 7 1031.6 1031.6 0.0
22/07:30pm 11.6 9.1 6.5 71 2.4 SSW 9 17 5 9 1031.4 1031.4 0.0
22/07:00pm 11.6 8.4 6.9 73 2.2 S 13 24 7 13 1031.1 1031.1 0.0
22/06:30pm 11.7 9.3 7.0 73 2.2 S 9 20 5 11 1030.8 1030.8 0.0
22/06:00pm 11.6 9.0 6.3 70 2.5 SSW 9 19 5 10 1030.9 1030.9 0.0
22/05:30pm 11.4 8.0 5.9 69 2.6 SSW 13 24 7 13 1030.8 1030.8 0.0
22/05:00pm 11.8 8.2 6.7 71 2.4 SSW 15 28 8 15 1030.6 1030.6 0.0
22/04:30pm 11.9 8.6 6.4 69 2.6 SSW 13 26 7 14 1030.4 1030.4 0.0
22/04:00pm 11.9 8.2 6.4 69 2.6 SSW 15 24 8 13 1030.4 1030.4 0.0
22/03:30pm 12.2 9.0 6.9 70 2.5 SSW 13 24 7 13 1030.3 1030.3 0.0
22/03:00pm 12.3 9.2 7.2 71 2.4 SSW 13 20 7 11 1030.0 1030.0 0.0
22/02:30pm 12.5 9.4 7.4 71 2.5 SSW 13 20 7 11 1029.8 1029.8 0.0
22/02:00pm 12.6 9.6 7.7 72 2.4 S 13 22 7 12 1029.6 1029.6 0.0
22/01:30pm 13.2 9.7 7.4 68 2.8 SSW 15 24 8 13 1029.6 1029.6 0.0
22/01:00pm 13.2 9.9 8.1 71 2.5 SSW 15 24 8 13 1029.6 1029.6 0.0
22/12:30pm 13.6 11.2 8.7 72 2.5 S 11 20 6 11 1029.5 1029.5 0.0
22/12:00pm 13.5 10.8 9.0 74 2.3 S 13 24 7 13 1029.8 1029.8 0.0
22/11:30am 12.5 9.3 8.4 76 2.0 S 15 24 8 13 1030.0 1030.0 0.0
22/11:00am 12.3 9.7 9.3 82 1.5 S 13 24 7 13 1030.2 1030.2 0.0
22/10:30am 11.9 9.4 9.8 87 1.1 S 13 22 7 12 1030.2 1030.2 0.0
22/10:00am 11.6 11.3 10.0 90 0.8 W 2 9 1 5 1030.2 1030.2 0.0
22/09:30am 11.3 11.5 10.4 94 0.5 CALM 0 0 0 0 1030.1 1030.1 0.0
22/09:00am 10.9 10.1 9.8 93 0.6 SSW 4 9 2 5 1030.1 1030.1 1.4
22/08:30am 11.4 9.8 8.8 84 1.3 SW 7 9 4 5 1029.8 1029.8 0.6
22/08:00am 11.6 10.1 8.3 80 1.6 SW 6 7 3 4 1029.5 1029.5 0.6
22/07:30am 11.4 10.4 8.8 84 1.3 ESE 4 7 2 4 1029.1 1029.1 0.6
22/07:00am 11.6 10.6 8.8 83 1.4 SSE 4 6 2 3 1028.6 1028.6 0.6
22/06:30am 11.4 10.7 8.6 83 1.4 SSW 2 4 1 2 1028.4 1028.4 0.6
22/06:00am 11.3 10.6 8.7 84 1.3 SSE 2 4 1 2 1027.9 1027.9 0.6
22/05:30am 11.5 10.6 9.1 85 1.2 SSE 4 7 2 4 1027.7 1027.7 0.6
22/05:00am 11.8 9.9 9.2 84 1.3 ESE 9 11 5 6 1027.5 1027.5 0.6
22/04:30am 11.8 9.2 9.4 85 1.2 E 13 17 7 9 1027.4 1027.4 0.6
22/04:00am 11.8 8.5 9.5 86 1.2 ESE 17 20 9 11 1027.3 1027.3 0.6
22/03:30am 11.8 8.9 9.5 86 1.2 ESE 15 19 8 10 1027.1 1027.1 0.6
22/03:00am 11.8 8.5 9.7 87 1.1 ESE 17 20 9 11 1027.2 1027.2 0.6
22/02:30am 11.7 8.1 9.8 88 1.0 ESE 19 22 10 12 1027.1 1027.1 0.6
22/02:00am 11.8 7.7 10.0 89 0.9 ESE 22 28 12 15 1027.0 1027.0 0.6
22/01:30am 12.1 7.6 10.2 88 1.0 ESE 24 30 13 16 1026.9 1026.9 0.6
22/01:00am 12.4 7.7 10.5 88 1.0 ESE 26 32 14 17 1026.9 1026.9 0.6
22/12:30am 12.3 7.5 10.4 88 1.0 ESE 26 32 14 17 1026.7 1026.7 0.6
22/12:00am 12.2 8.5 10.3 88 1.0 ESE 20 28 11 15 1026.8 1026.8 0.6
 
Date/Time
EST
Temp
°C
App
Temp
°C
Dew
Point
Rel
Hum
%
Delta-T
°C
Wind Press
QNH
hPa
Press
MSL
hPa
Rain
since 9 am
mm
Dir
 
Spd
km/h
Gust
km/h
Spd
kts
Gust
kts
21/11:30pm 12.3 7.6 10.7 90 0.8 ESE 26 30 14 16 1026.6 1026.6 0.6

Other Formats:

Comma delimited format used in spreadsheet applications
http://www.bom.gov.au/fwo/IDV60801/IDV60801.94892.axf

JavaScript Object Notation format (JSON) in row-major order
http://www.bom.gov.au/fwo/IDV60801/IDV60801.94892.json